Time;durP1;ratioP1;P1;durP2;ratioP2;P2;SDS_P1;SDS_P2;PMS_P1;PMS_P2;Temp;Humidity;BMP_temperature;BMP_pressure;BME280_temperature;BME280_humidity;BME280_pressure;Samples;Min_cycle;Max_cycle;Signal;HPM_P1;HPM_P2
2021/12/05 00:23:17;;;;;;;;;;;;;;;;;;5035874;28;20068;-39
2021/12/05 00:25:46;;;;;;;35.45;17.55;;;;;;;;;;5053868;28;19920;-40
2021/12/05 00:31:09;;;;;;;43.83;21.50;;;;;;;;;;5053821;28;20029;-40
2021/12/05 00:34:05;;;;;;;41.88;21.23;;;;;;;;;;5052981;28;20051;-41
2021/12/05 00:40:30;;;;;;;44.28;22.52;;;;;;;;;;5053569;28;20029;-45
2021/12/05 00:55:19;;;;;;;46.83;24.38;;;;;;;;;;5053311;28;20052;-41
2021/12/05 01:14:49;;;;;;;50.97;22.83;;;;;;;;;;5053028;28;20118;-40
2021/12/05 01:17:18;;;;;;;45.97;22.42;;;;;;;;;;5034545;28;20034;-40
2021/12/05 01:19:44;;;;;;;43.38;19.27;;;;;;;;;;5051052;28;20159;-40
2021/12/05 01:22:12;;;;;;;44.60;19.52;;;;;;;;;;5052030;28;20116;-40
2021/12/05 01:27:41;;;;;;;42.67;19.80;;;;;;;;;;5052362;28;20167;-40
2021/12/05 01:30:23;;;;;;;40.30;20.88;;;;;;;;;;5052399;28;20033;-40
2021/12/05 01:33:03;;;;;;;39.53;19.60;;;;;;;;;;5052156;28;20126;-40
2021/12/05 01:41:00;;;;;;;42.47;20.38;;;;;;;;;;5052691;28;20462;-40
2021/12/05 01:49:30;;;;;;;37.38;18.92;;;;;;;;;;5052604;28;20017;-40
2021/12/05 01:52:50;;;;;;;37.40;18.10;;;;;;;;;;5051994;28;20536;-41
2021/12/05 02:16:42;;;;;;;39.20;20.00;;;;;;;;;;5052409;28;20032;-40
2021/12/05 02:30:27;;;;;;;48.08;23.30;;;;;;;;;;5052212;28;20028;-40
2021/12/05 02:43:08;;;;;;;44.90;20.55;;;;;;;;;;5054012;28;20116;-40
2021/12/05 02:45:37;;;;;;;37.58;18.35;;;;;;;;;;5055595;28;20059;-40
2021/12/05 02:48:03;;;;;;;40.45;19.33;;;;;;;;;;5055438;28;20462;-40
2021/12/05 02:50:32;;;;;;;37.25;18.83;;;;;;;;;;5055539;28;20102;-40
2021/12/05 02:53:08;;;;;;;39.13;21.13;;;;;;;;;;5055532;28;20048;-40
2021/12/05 02:55:41;;;;;;;41.15;19.02;;;;;;;;;;5055403;28;20499;-40
2021/12/05 02:58:24;;;;;;;46.15;22.35;;;;;;;;;;5055314;28;20033;-41
2021/12/05 03:03:19;;;;;;;44.63;20.75;;;;;;;;;;5055128;28;20075;-40
2021/12/05 03:05:50;;;;;;;43.83;19.50;;;;;;;;;;5055153;28;20025;-40
2021/12/05 03:08:16;;;;;;;43.60;20.75;;;;;;;;;;5055111;28;20075;-40
2021/12/05 03:10:43;;;;;;;42.53;21.58;;;;;;;;;;5055031;28;20037;-40
2021/12/05 03:13:08;;;;;;;44.33;21.52;;;;;;;;;;5055177;28;20036;-40
2021/12/05 03:15:34;;;;;;;43.10;20.83;;;;;;;;;;5055200;28;20389;-45
2021/12/05 03:18:00;;;;;;;40.38;20.17;;;;;;;;;;5055244;28;20029;-40
2021/12/05 03:20:25;;;;;;;41.33;21.10;;;;;;;;;;5055151;28;20025;-40
2021/12/05 03:22:52;;;;;;;44.45;20.40;;;;;;;;;;5055129;28;20492;-40
2021/12/05 03:25:17;;;;;;;43.50;22.05;;;;;;;;;;5054866;28;20021;-40
2021/12/05 03:27:43;;;;;;;46.47;21.65;;;;;;;;;;5054742;28;20036;-40
2021/12/05 03:30:12;;;;;;;39.40;21.10;;;;;;;;;;5054747;28;20071;-40
2021/12/05 03:32:38;;;;;;;31.40;17.80;;;;;;;;;;5054489;28;20521;-41
2021/12/05 03:35:07;;;;;;;40.88;18.48;;;;;;;;;;5054675;28;20103;-40
2021/12/05 03:37:33;;;;;;;42.35;21.58;;;;;;;;;;5054611;28;20025;-40
2021/12/05 03:39:58;;;;;;;44.50;22.40;;;;;;;;;;5054661;28;20028;-40
2021/12/05 03:42:24;;;;;;;40.95;21.30;;;;;;;;;;5054517;28;20029;-40
2021/12/05 03:44:49;;;;;;;48.10;22.23;;;;;;;;;;5054523;28;20036;-40
2021/12/05 03:47:15;;;;;;;44.72;22.67;;;;;;;;;;5054764;28;20032;-40
2021/12/05 03:49:41;;;;;;;37.15;19.08;;;;;;;;;;5054651;28;20021;-40
2021/12/05 03:52:11;;;;;;;34.20;20.02;;;;;;;;;;5054275;28;20021;-40
2021/12/05 03:54:37;;;;;;;41.53;21.05;;;;;;;;;;5053621;28;20467;-40
2021/12/05 03:57:04;;;;;;;44.40;22.00;;;;;;;;;;5054560;28;20025;-46
2021/12/05 03:59:30;;;;;;;42.58;20.63;;;;;;;;;;5036328;28;20059;-41
2021/12/05 04:01:57;;;;;;;44.70;21.45;;;;;;;;;;5054058;28;20032;-40
2021/12/05 04:04:23;;;;;;;36.95;20.23;;;;;;;;;;5054371;28;20029;-42
2021/12/05 04:06:49;;;;;;;40.53;21.48;;;;;;;;;;5054287;28;20063;-40
2021/12/05 04:09:16;;;;;;;30.80;16.63;;;;;;;;;;5054323;28;20082;-40
2021/12/05 04:11:47;;;;;;;36.88;18.23;;;;;;;;;;5053913;28;20494;-40
2021/12/05 04:14:14;;;;;;;;;;;;;;;;;;5054283;28;20032;-39
2021/12/05 04:16:42;;;;;;;26.95;12.05;;;;;;;;;;5054141;28;19913;-40
2021/12/05 04:19:09;;;;;;;40.75;19.92;;;;;;;;;;5054152;28;20078;-43
2021/12/05 04:21:37;;;;;;;35.97;16.77;;;;;;;;;;5053697;28;20532;-40
2021/12/05 04:24:05;;;;;;;46.67;20.88;;;;;;;;;;5053781;28;20025;-40
2021/12/05 04:26:31;;;;;;;31.92;16.95;;;;;;;;;;5053875;28;20025;-40
2021/12/05 04:28:56;;;;;;;41.60;21.60;;;;;;;;;;5053870;28;20365;-40
2021/12/05 04:31:22;;;;;;;34.75;18.65;;;;;;;;;;5053855;28;20079;-40
2021/12/05 04:33:49;;;;;;;41.25;19.30;;;;;;;;;;5053117;28;20059;-40
2021/12/05 04:36:15;;;;;;;36.80;17.90;;;;;;;;;;5053432;28;20025;-39
2021/12/05 04:38:41;;;;;;;40.28;20.00;;;;;;;;;;5053693;28;20047;-40
2021/12/05 04:41:07;;;;;;;34.45;19.52;;;;;;;;;;5053668;28;20366;-43
2021/12/05 04:43:38;;;;;;;38.00;19.52;;;;;;;;;;5053445;28;20390;-40
2021/12/05 04:46:08;;;;;;;;;;;;;;;;;;5054041;28;20377;-39
2021/12/05 04:48:33;;;;;;;;;;;;;;;;;;5054052;28;20281;-41
2021/12/05 04:51:00;;;;;;;33.78;16.83;;;;;;;;;;5053465;28;19916;-40
2021/12/05 04:53:27;;;;;;;39.97;19.15;;;;;;;;;;5053053;28;20478;-40
2021/12/05 04:55:54;;;;;;;30.35;16.08;;;;;;;;;;5053468;28;20025;-40
2021/12/05 04:58:20;;;;;;;34.60;15.18;;;;;;;;;;5052990;28;20035;-40
2021/12/05 05:00:46;;;;;;;36.70;17.05;;;;;;;;;;5053041;28;20020;-41
2021/12/05 05:03:13;;;;;;;44.15;19.75;;;;;;;;;;5053223;28;20031;-46
2021/12/05 05:05:45;;;;;;;36.60;19.77;;;;;;;;;;5051856;28;20033;-42
2021/12/05 05:08:11;;;;;;;42.47;20.02;;;;;;;;;;5052934;28;20465;-41
2021/12/05 05:10:37;;;;;;;36.38;19.20;;;;;;;;;;5052880;28;20035;-45
2021/12/05 05:13:02;;;;;;;38.22;19.95;;;;;;;;;;5052741;28;20039;-40
2021/12/05 05:15:30;;;;;;;36.35;18.38;;;;;;;;;;5053091;28;20199;-40
2021/12/05 05:17:57;;;;;;;40.47;21.25;;;;;;;;;;5052562;28;20025;-40
2021/12/05 05:20:36;;;;;;;37.60;19.42;;;;;;;;;;5052708;28;20461;-40
2021/12/05 05:23:21;;;;;;;33.50;14.90;;;;;;;;;;5052635;28;20060;-40
2021/12/05 05:26:39;;;;;;;39.70;19.85;;;;;;;;;;5052665;28;20028;-40
2021/12/05 05:44:56;;;;;;;36.85;17.60;;;;;;;;;;5052359;28;20033;-40
2021/12/05 05:52:14;;;;;;;32.92;17.42;;;;;;;;;;5052200;28;20065;-40
2021/12/05 05:54:43;;;;;;;33.17;16.95;;;;;;;;;;5052258;28;20060;-40
2021/12/05 05:57:18;;;;;;;44.58;19.90;;;;;;;;;;5052490;28;20032;-40
2021/12/05 05:59:53;;;;;;;37.10;20.48;;;;;;;;;;5052122;28;20470;-40
2021/12/05 06:05:03;;;;;;;31.75;13.20;;;;;;;;;;5052100;28;20424;-40
2021/12/05 06:07:29;;;;;;;31.13;17.58;;;;;;;;;;5052124;28;20040;-40
2021/12/05 06:09:55;;;;;;;23.90;11.38;;;;;;;;;;5052061;28;20017;-39
2021/12/05 06:12:20;;;;;;;22.85;12.13;;;;;;;;;;5052200;28;20040;-39
2021/12/05 06:14:46;;;;;;;22.95;13.07;;;;;;;;;;5052147;28;20385;-40
2021/12/05 06:17:11;;;;;;;37.03;19.13;;;;;;;;;;5053278;28;20025;-40
2021/12/05 06:19:37;;;;;;;14.50;8.07;;;;;;;;;;5056090;28;20111;-40
2021/12/05 06:22:03;;;;;;;17.95;10.93;;;;;;;;;;5056332;28;20017;-39
2021/12/05 06:24:28;;;;;;;8.73;7.10;;;;;;;;;;5056286;28;20025;-39
2021/12/05 06:26:54;;;;;;;14.40;9.18;;;;;;;;;;5055930;28;20367;-39
2021/12/05 06:29:22;;;;;;;21.63;15.00;;;;;;;;;;5056249;28;20092;-41
2021/12/05 06:47:36;;;;;;;54.72;27.52;;;;;;;;;;5055963;28;20036;-40
2021/12/05 06:50:02;;;;;;;57.75;28.23;;;;;;;;;;5055507;28;20021;-40
2021/12/05 06:52:27;;;;;;;57.45;28.73;;;;;;;;;;5055257;28;20112;-41
2021/12/05 06:54:53;;;;;;;55.88;28.23;;;;;;;;;;5055454;28;20409;-40
2021/12/05 06:57:18;;;;;;;53.67;27.15;;;;;;;;;;5055648;28;20029;-40
2021/12/05 06:59:47;;;;;;;50.45;25.90;;;;;;;;;;5055379;28;20021;-40
2021/12/05 07:02:15;;;;;;;50.83;25.08;;;;;;;;;;5055602;28;20029;-40
2021/12/05 07:07:28;;;;;;;18.05;10.50;;;;;;;;;;5055557;28;20024;-40
2021/12/05 07:09:54;;;;;;;44.47;23.60;;;;;;;;;;5055389;28;20025;-40
2021/12/05 07:15:04;;;;;;;48.45;24.23;;;;;;;;;;5055141;28;20025;-40
2021/12/05 07:20:35;;;;;;;36.42;17.15;;;;;;;;;;5055250;28;20030;-40
2021/12/05 07:26:06;;;;;;;49.05;24.35;;;;;;;;;;5054948;28;20053;-40
2021/12/05 07:42:05;;;;;;;56.00;24.80;;;;;;;;;;5054635;28;20516;-40
2021/12/05 07:44:32;;;;;;;20.17;11.73;;;;;;;;;;5054501;28;20031;-40
2021/12/05 07:46:58;;;;;;;17.00;10.60;;;;;;;;;;5054704;28;20021;-41
2021/12/05 07:49:24;;;;;;;9.68;6.40;;;;;;;;;;5054705;28;20021;-40
2021/12/05 07:51:51;;;;;;;9.15;7.00;;;;;;;;;;5054354;28;20025;-41
2021/12/05 07:54:34;;;;;;;27.27;13.95;;;;;;;;;;5054491;28;20424;-39
2021/12/05 08:16:04;;;;;;;31.15;17.48;;;;;;;;;;5054300;28;20069;-47
2021/12/05 08:18:30;;;;;;;;;;;;;;;;;;5054341;28;20032;-41
2021/12/05 08:20:56;;;;;;;24.05;11.43;;;;;;;;;;5054140;28;19924;-44
2021/12/05 08:23:23;;;;;;;43.55;22.48;;;;;;;;;;5053761;28;20029;-40
2021/12/05 08:25:58;;;;;;;36.97;18.17;;;;;;;;;;5053674;28;20031;-40
2021/12/05 08:31:00;;;;;;;19.02;10.02;;;;;;;;;;5053668;28;20112;-41
2021/12/05 09:25:45;;;;;;;17.33;10.65;;;;;;;;;;5051025;28;20030;-42
2021/12/05 09:30:56;;;;;;;18.52;10.57;;;;;;;;;;5050714;28;20078;-40
2021/12/05 10:09:30;;;;;;;20.52;10.32;;;;;;;;;;5031072;28;20393;-40
2021/12/05 10:37:10;;;;;;;37.30;21.70;;;;;;;;;;5011050;28;20121;-40
2021/12/05 10:39:36;;;;;;;17.25;11.77;;;;;;;;;;5030293;28;20030;-41
2021/12/05 10:42:42;;;;;;;26.70;14.93;;;;;;;;;;5030566;28;20051;-40
2021/12/05 10:45:28;;;;;;;39.80;21.35;;;;;;;;;;5030628;28;20391;-40
2021/12/05 10:47:57;;;;;;;28.40;16.30;;;;;;;;;;5030273;28;20029;-43
2021/12/05 10:50:34;;;;;;;26.05;14.75;;;;;;;;;;5030417;28;20071;-40
2021/12/05 10:53:19;;;;;;;14.00;9.13;;;;;;;;;;5030610;28;20083;-40
2021/12/05 10:55:45;;;;;;;25.67;9.75;;;;;;;;;;5030506;28;20048;-40
2021/12/05 10:58:10;;;;;;;36.80;20.10;;;;;;;;;;5030625;28;20533;-40
2021/12/05 11:00:36;;;;;;;18.88;13.57;;;;;;;;;;5030241;28;20057;-41
2021/12/05 11:03:17;;;;;;;34.28;17.85;;;;;;;;;;5031211;28;20021;-40
2021/12/05 11:05:43;;;;;;;36.00;19.40;;;;;;;;;;5034024;28;20021;-40
2021/12/05 11:08:35;;;;;;;20.90;12.93;;;;;;;;;;5033795;28;20438;-42
2021/12/05 11:11:12;;;;;;;24.60;14.18;;;;;;;;;;5033516;28;20028;-42
2021/12/05 11:13:43;;;;;;;26.40;11.25;;;;;;;;;;5035058;28;20030;-43
2021/12/05 11:17:05;;;;;;;19.17;11.82;;;;;;;;;;5034991;28;20493;-41
2021/12/05 11:19:44;;;;;;;36.95;17.13;;;;;;;;;;4954371;29;20134;-40
2021/12/05 11:22:20;;;;;;;26.52;13.27;;;;;;;;;;4953705;29;20106;-45
2021/12/05 11:24:56;;;;;;;28.02;14.73;;;;;;;;;;5003508;28;20137;-40
2021/12/05 11:27:38;;;;;;;27.02;15.25;;;;;;;;;;5046684;28;20025;-40
2021/12/05 11:30:13;;;;;;;28.40;16.58;;;;;;;;;;5050228;28;20104;-40
2021/12/05 11:32:55;;;;;;;24.70;12.93;;;;;;;;;;5048790;28;20060;-40
2021/12/05 11:35:32;;;;;;;22.95;13.15;;;;;;;;;;5049444;28;20017;-40
2021/12/05 11:38:22;;;;;;;26.50;15.20;;;;;;;;;;5053115;28;20051;-40
2021/12/05 11:41:10;;;;;;;27.05;14.93;;;;;;;;;;5054295;28;20481;-40
2021/12/05 11:43:45;;;;;;;30.42;16.45;;;;;;;;;;5054382;28;20064;-42
2021/12/05 11:46:17;;;;;;;25.92;15.15;;;;;;;;;;5054345;28;20024;-40
2021/12/05 11:49:05;;;;;;;25.85;14.40;;;;;;;;;;5054653;28;20078;-40
2021/12/05 11:51:51;;;;;;;33.25;17.27;;;;;;;;;;5054371;28;20032;-40
2021/12/05 11:54:32;;;;;;;36.03;18.08;;;;;;;;;;5037609;28;20040;-40
2021/12/05 11:57:05;;;;;;;33.08;18.25;;;;;;;;;;5054540;28;20021;-41
2021/12/05 11:59:35;;;;;;;21.80;12.68;;;;;;;;;;5054427;28;20028;-40
2021/12/05 12:02:04;;;;;;;21.90;12.57;;;;;;;;;;5036310;28;20119;-40
2021/12/05 12:04:47;;;;;;;13.95;8.25;;;;;;;;;;5054255;28;20378;-40
2021/12/05 12:07:24;;;;;;;35.17;16.70;;;;;;;;;;5054001;28;20532;-40
2021/12/05 12:09:54;;;;;;;16.23;9.88;;;;;;;;;;5054221;28;20489;-40
2021/12/05 12:12:20;;;;;;;15.13;9.27;;;;;;;;;;5053871;28;20493;-40
2021/12/05 12:14:46;;;;;;;21.33;12.60;;;;;;;;;;5053427;28;20068;-43
2021/12/05 12:17:16;;;;;;;14.70;8.95;;;;;;;;;;5053614;28;20091;-39
2021/12/05 12:19:54;;;;;;;32.80;15.40;;;;;;;;;;5054082;28;20036;-40
2021/12/05 12:22:22;;;;;;;31.45;16.73;;;;;;;;;;5053595;28;20581;-43
2021/12/05 12:24:50;;;;;;;18.55;9.10;;;;;;;;;;5053607;28;20021;-41
2021/12/05 12:27:17;;;;;;;32.60;16.52;;;;;;;;;;5053032;28;20024;-40
2021/12/05 12:29:44;;;;;;;43.80;23.30;;;;;;;;;;5052984;28;20037;-41
2021/12/05 12:32:15;;;;;;;32.05;17.05;;;;;;;;;;5053552;28;20424;-40
2021/12/05 12:34:42;;;;;;;37.58;18.55;;;;;;;;;;5053275;28;20120;-40
2021/12/05 12:37:10;;;;;;;25.75;13.40;;;;;;;;;;5053758;28;20102;-40
2021/12/05 12:39:48;;;;;;;34.13;18.95;;;;;;;;;;5052660;28;20064;-42
2021/12/05 12:42:19;;;;;;;36.08;19.08;;;;;;;;;;5053261;28;20111;-40
2021/12/05 12:45:16;;;;;;;33.35;16.60;;;;;;;;;;5052578;28;20091;-40
2021/12/05 12:47:55;;;;;;;49.00;26.20;;;;;;;;;;5053513;28;20025;-40
2021/12/05 12:50:35;;;;;;;36.97;19.70;;;;;;;;;;5053772;28;20029;-40
2021/12/05 12:53:14;;;;;;;37.00;18.15;;;;;;;;;;5052997;28;20043;-49
2021/12/05 12:56:05;;;;;;;29.33;18.15;;;;;;;;;;5052852;28;20545;-46
2021/12/05 12:58:50;;;;;;;49.53;26.75;;;;;;;;;;5053351;28;20071;-46
2021/12/05 13:04:49;;;;;;;45.20;23.40;;;;;;;;;;5052194;28;20083;-46
2021/12/05 13:10:26;;;;;;;55.35;26.85;;;;;;;;;;5052000;28;20382;-40
2021/12/05 13:13:04;;;;;;;49.97;26.50;;;;;;;;;;5052127;28;20025;-43
2021/12/05 13:15:52;;;;;;;40.95;21.65;;;;;;;;;;5050883;28;20025;-40
2021/12/05 13:18:23;;;;;;;66.88;34.13;;;;;;;;;;5051800;28;20029;-40
2021/12/05 13:21:31;;;;;;;52.40;23.63;;;;;;;;;;5052537;28;20078;-41
2021/12/05 13:23:57;;;;;;;89.45;44.67;;;;;;;;;;5052470;28;20029;-45
2021/12/05 13:26:42;;;;;;;43.50;25.02;;;;;;;;;;5052208;28;20038;-41
2021/12/05 13:29:25;;;;;;;55.25;28.27;;;;;;;;;;5052651;28;20029;-43
2021/12/05 13:32:04;;;;;;;29.10;15.32;;;;;;;;;;5052564;28;20021;-40
2021/12/05 13:34:42;;;;;;;29.27;14.65;;;;;;;;;;5052368;28;20479;-47
2021/12/05 13:37:10;;;;;;;31.95;17.80;;;;;;;;;;5052588;28;20115;-46
2021/12/05 13:39:41;;;;;;;76.72;34.22;;;;;;;;;;5052481;28;20029;-46
2021/12/05 13:42:25;;;;;;;34.30;17.92;;;;;;;;;;5052398;28;20036;-47
2021/12/05 13:45:00;;;;;;;81.68;38.67;;;;;;;;;;5052715;28;20083;-45
2021/12/05 13:47:33;;;;;;;51.33;25.95;;;;;;;;;;5052392;28;20060;-43
2021/12/05 13:50:22;;;;;;;59.30;28.63;;;;;;;;;;5052638;28;20078;-44
2021/12/05 13:53:03;;;;;;;39.05;18.90;;;;;;;;;;5052533;28;20035;-44
2021/12/05 13:55:50;;;;;;;45.50;20.42;;;;;;;;;;5052206;28;20017;-46
2021/12/05 14:01:29;;;;;;;38.85;20.33;;;;;;;;;;5052372;28;20033;-45
2021/12/05 14:04:19;;;;;;;37.65;16.27;;;;;;;;;;5052212;28;20029;-44
2021/12/05 14:06:53;;;;;;;40.60;20.85;;;;;;;;;;5052054;28;20025;-44
2021/12/05 14:09:30;;;;;;;36.78;19.85;;;;;;;;;;5052498;28;20378;-42
2021/12/05 14:11:58;;;;;;;33.03;12.38;;;;;;;;;;5052222;28;20025;-43
2021/12/05 14:14:26;;;;;;;35.47;18.92;;;;;;;;;;5051677;28;20558;-43
2021/12/05 14:16:54;;;;;;;23.17;13.50;;;;;;;;;;5051343;28;20025;-45
2021/12/05 14:19:23;;;;;;;36.55;18.67;;;;;;;;;;5051910;28;20474;-45
2021/12/05 14:21:51;;;;;;;24.55;13.32;;;;;;;;;;5051852;28;20474;-43
2021/12/05 14:24:19;;;;;;;53.78;25.20;;;;;;;;;;5051680;28;20028;-43
2021/12/05 14:26:50;;;;;;;32.15;16.50;;;;;;;;;;5046559;28;20032;-46
2021/12/05 14:29:19;;;;;;;36.55;18.75;;;;;;;;;;5051987;28;20052;-49
2021/12/05 14:32:12;;;;;;;33.55;19.52;;;;;;;;;;5051360;28;20079;-47
2021/12/05 14:34:40;;;;;;;58.95;27.95;;;;;;;;;;5048289;28;20033;-45
2021/12/05 14:37:12;;;;;;;27.60;13.25;;;;;;;;;;5052078;28;20091;-45
2021/12/05 14:39:49;;;;;;;47.55;23.55;;;;;;;;;;5055208;28;20496;-45
2021/12/05 14:42:20;;;;;;;35.10;17.90;;;;;;;;;;5037976;28;20029;-46
2021/12/05 14:44:50;;;;;;;34.90;17.77;;;;;;;;;;5055735;28;20056;-44
2021/12/05 14:47:19;;;;;;;30.67;13.35;;;;;;;;;;5055399;28;20488;-45
2021/12/05 14:50:08;;;;;;;40.80;21.88;;;;;;;;;;5055639;28;20032;-45
2021/12/05 14:52:36;;;;;;;29.48;12.98;;;;;;;;;;5055687;28;20025;-45
2021/12/05 14:55:05;;;;;;;53.72;23.70;;;;;;;;;;5055567;28;20055;-45
2021/12/05 14:57:33;;;;;;;52.08;21.67;;;;;;;;;;5055215;28;20021;-45
2021/12/05 15:00:11;;;;;;;34.45;16.98;;;;;;;;;;5054829;28;20028;-44
2021/12/05 15:02:38;;;;;;;50.42;23.27;;;;;;;;;;5055345;28;20029;-45
2021/12/05 15:05:10;;;;;;;37.05;16.88;;;;;;;;;;5055458;28;20111;-46
2021/12/05 15:07:36;;;;;;;51.25;22.10;;;;;;;;;;5055028;28;20124;-46
2021/12/05 15:10:03;;;;;;;50.35;22.77;;;;;;;;;;5055115;28;20040;-42
2021/12/05 15:12:32;;;;;;;21.45;11.07;;;;;;;;;;5054896;28;20021;-43
2021/12/05 15:15:02;;;;;;;38.33;19.60;;;;;;;;;;5055019;28;20608;-40
2021/12/05 15:17:34;;;;;;;28.42;14.40;;;;;;;;;;5054810;28;20064;-40
2021/12/05 15:20:04;;;;;;;33.47;14.32;;;;;;;;;;5055156;28;20102;-41
2021/12/05 15:22:31;;;;;;;31.15;15.18;;;;;;;;;;5055178;28;20040;-45
2021/12/05 15:25:18;;;;;;;47.08;19.25;;;;;;;;;;5036653;28;20375;-42
2021/12/05 15:27:45;;;;;;;11.20;6.35;;;;;;;;;;5053899;28;20021;-43
2021/12/05 15:30:30;;;;;;;17.75;8.68;;;;;;;;;;5054743;28;20021;-40
2021/12/05 15:33:00;;;;;;;40.28;16.45;;;;;;;;;;5054406;28;20041;-43
2021/12/05 15:35:27;;;;;;;47.75;21.83;;;;;;;;;;5054704;28;20025;-45
2021/12/05 15:37:59;;;;;;;41.97;18.52;;;;;;;;;;5054479;28;20028;-42
2021/12/05 15:40:27;;;;;;;40.50;19.00;;;;;;;;;;5054843;28;20035;-42
2021/12/05 15:43:03;;;;;;;28.33;15.20;;;;;;;;;;5054607;28;20028;-41
2021/12/05 15:45:29;;;;;;;23.92;13.18;;;;;;;;;;5054940;28;20021;-42
2021/12/05 15:47:54;;;;;;;24.10;12.35;;;;;;;;;;5054597;28;20067;-40
2021/12/05 15:50:26;;;;;;;37.47;18.05;;;;;;;;;;5053821;28;20025;-42
2021/12/05 15:52:56;;;;;;;28.17;14.27;;;;;;;;;;5054624;28;20070;-43
2021/12/05 15:55:26;;;;;;;45.92;20.75;;;;;;;;;;5054394;28;20029;-43
2021/12/05 15:58:01;;;;;;;61.00;28.80;;;;;;;;;;5054642;28;20029;-46
2021/12/05 16:00:35;;;;;;;26.42;15.63;;;;;;;;;;5054392;28;20108;-42
2021/12/05 16:03:08;;;;;;;37.47;20.60;;;;;;;;;;5054532;28;20025;-46
2021/12/05 16:05:36;;;;;;;27.77;11.00;;;;;;;;;;5054556;28;20425;-40
2021/12/05 16:08:09;;;;;;;32.08;14.45;;;;;;;;;;5054129;28;20035;-44
2021/12/05 16:10:46;;;;;;;39.20;16.38;;;;;;;;;;5054184;28;20087;-43
2021/12/05 16:13:22;;;;;;;29.70;13.80;;;;;;;;;;5052794;28;20040;-45
2021/12/05 16:15:52;;;;;;;36.08;15.85;;;;;;;;;;5054073;28;20547;-42
2021/12/05 16:18:18;;;;;;;33.17;17.83;;;;;;;;;;5054276;28;20027;-41
2021/12/05 16:20:55;;;;;;;21.33;11.40;;;;;;;;;;5054183;28;20131;-43
2021/12/05 16:23:25;;;;;;;35.60;16.45;;;;;;;;;;5053796;28;20067;-43
2021/12/05 16:26:11;;;;;;;18.35;9.50;;;;;;;;;;5054069;28;20155;-45
2021/12/05 16:28:44;;;;;;;34.53;17.55;;;;;;;;;;5053744;28;20021;-42
2021/12/05 16:31:26;;;;;;;56.72;22.17;;;;;;;;;;5053764;28;20029;-43
2021/12/05 16:33:58;;;;;;;52.83;21.83;;;;;;;;;;5053532;28;20132;-44
2021/12/05 16:36:36;;;;;;;54.65;22.70;;;;;;;;;;5053626;28;20017;-46
2021/12/05 16:39:11;;;;;;;58.53;23.15;;;;;;;;;;5053585;28;20031;-41
2021/12/05 16:41:41;;;;;;;51.35;21.50;;;;;;;;;;5053789;28;20090;-45
2021/12/05 16:44:10;;;;;;;54.08;20.73;;;;;;;;;;5053841;28;20052;-42
2021/12/05 16:46:37;;;;;;;29.58;13.43;;;;;;;;;;5053690;28;20036;-43
2021/12/05 16:49:06;;;;;;;45.75;20.25;;;;;;;;;;5053251;28;20036;-42
2021/12/05 16:51:42;;;;;;;47.70;21.70;;;;;;;;;;5053313;28;20474;-43
2021/12/05 16:54:18;;;;;;;54.75;23.15;;;;;;;;;;5053152;28;20477;-44
2021/12/05 16:56:52;;;;;;;23.92;12.00;;;;;;;;;;5053538;28;20436;-46
2021/12/05 16:59:37;;;;;;;14.63;8.90;;;;;;;;;;5053150;28;20022;-43
2021/12/05 17:02:14;;;;;;;32.28;14.77;;;;;;;;;;5038858;28;20039;-41
2021/12/05 17:04:44;;;;;;;45.83;18.92;;;;;;;;;;5053180;28;20033;-44
2021/12/05 17:07:13;;;;;;;30.40;13.98;;;;;;;;;;5053304;28;20029;-40
2021/12/05 17:09:39;;;;;;;49.30;20.25;;;;;;;;;;5053231;28;20033;-42
2021/12/05 17:12:05;;;;;;;23.38;12.55;;;;;;;;;;5052853;28;20435;-43
2021/12/05 17:14:31;;;;;;;18.48;9.70;;;;;;;;;;5052843;28;20033;-44
2021/12/05 17:16:57;;;;;;;61.75;25.00;;;;;;;;;;5053075;28;20017;-45
2021/12/05 17:19:27;;;;;;;53.15;23.58;;;;;;;;;;5053099;28;20370;-43
2021/12/05 17:21:53;;;;;;;34.28;17.17;;;;;;;;;;5052655;28;20474;-45
2021/12/05 17:24:28;;;;;;;37.20;15.27;;;;;;;;;;5052817;28;20041;-45
2021/12/05 17:27:05;;;;;;;32.65;16.02;;;;;;;;;;5052668;28;20067;-46
2021/12/05 17:29:34;;;;;;;20.85;11.30;;;;;;;;;;5053024;28;20079;-45
2021/12/05 17:31:59;;;;;;;24.65;11.13;;;;;;;;;;5052547;28;20031;-44
2021/12/05 17:34:36;;;;;;;31.27;13.38;;;;;;;;;;5052360;28;20044;-40
2021/12/05 17:37:08;;;;;;;29.40;14.45;;;;;;;;;;5052536;28;20534;-43
2021/12/05 17:39:39;;;;;;;57.80;21.95;;;;;;;;;;5052802;28;20032;-46
2021/12/05 17:42:08;;;;;;;60.67;23.50;;;;;;;;;;5052485;28;20028;-40
2021/12/05 17:44:34;;;;;;;69.32;25.38;;;;;;;;;;5052416;28;20083;-40
2021/12/05 17:47:04;;;;;;;66.63;26.05;;;;;;;;;;5052350;28;20041;-41
2021/12/05 17:49:32;;;;;;;78.25;28.08;;;;;;;;;;5052573;28;20033;-45
2021/12/05 17:51:59;;;;;;;33.47;13.82;;;;;;;;;;5052370;28;20025;-42
2021/12/05 17:54:35;;;;;;;53.80;22.83;;;;;;;;;;5052539;28;20198;-44
2021/12/05 17:57:30;;;;;;;60.22;23.90;;;;;;;;;;5052165;28;20041;-43
2021/12/05 18:05:20;;;;;;;64.88;26.05;;;;;;;;;;5052557;28;20035;-41
2021/12/05 18:07:49;;;;;;;72.55;25.88;;;;;;;;;;5052501;28;20052;-43
2021/12/05 18:10:17;;;;;;;67.97;23.90;;;;;;;;;;5052124;28;20064;-43
2021/12/05 18:12:44;;;;;;;77.35;25.63;;;;;;;;;;5034483;28;20040;-42
2021/12/05 18:15:24;;;;;;;73.78;26.23;;;;;;;;;;5056474;28;20112;-43
2021/12/05 18:17:50;;;;;;;70.82;26.52;;;;;;;;;;5056549;28;20033;-42
2021/12/05 18:20:19;;;;;;;65.03;24.55;;;;;;;;;;5056374;28;20036;-44
2021/12/05 18:22:46;;;;;;;71.07;26.60;;;;;;;;;;5056185;28;20420;-45
2021/12/05 18:25:12;;;;;;;66.50;26.08;;;;;;;;;;5056030;28;20474;-43
2021/12/05 18:27:39;;;;;;;78.10;29.75;;;;;;;;;;5056248;28;20029;-42
2021/12/05 18:30:07;;;;;;;66.28;24.73;;;;;;;;;;5055938;28;20536;-41
2021/12/05 18:32:33;;;;;;;73.18;26.42;;;;;;;;;;5055697;28;20028;-42
2021/12/05 18:35:00;;;;;;;71.38;26.58;;;;;;;;;;5055956;28;20394;-41
2021/12/05 18:37:25;;;;;;;83.75;28.08;;;;;;;;;;5055846;28;20495;-42
2021/12/05 18:39:52;;;;;;;80.72;27.85;;;;;;;;;;5055986;28;20057;-42
2021/12/05 18:42:20;;;;;;;74.55;26.15;;;;;;;;;;5056022;28;20027;-44
2021/12/05 18:44:51;;;;;;;80.50;26.52;;;;;;;;;;5055688;28;20103;-45
2021/12/05 18:47:17;;;;;;;95.07;26.38;;;;;;;;;;5056061;28;20052;-44
2021/12/05 18:49:44;;;;;;;79.82;27.58;;;;;;;;;;5055586;28;20017;-45
2021/12/05 18:52:10;;;;;;;70.63;24.38;;;;;;;;;;5055519;28;20044;-40
2021/12/05 18:54:42;;;;;;;89.03;25.58;;;;;;;;;;5055524;28;20025;-43
2021/12/05 18:57:10;;;;;;;87.63;23.00;;;;;;;;;;5055572;28;20054;-41
2021/12/05 18:59:38;;;;;;;78.13;25.65;;;;;;;;;;5055531;28;20252;-43
2021/12/05 19:04:53;;;;;;;65.40;25.77;;;;;;;;;;5055717;28;20075;-43
2021/12/05 19:07:27;;;;;;;106.68;26.40;;;;;;;;;;5055589;28;20025;-41
2021/12/05 19:12:33;;;;;;;59.38;17.83;;;;;;;;;;5055558;28;20025;-44
2021/12/05 19:15:03;;;;;;;30.15;11.02;;;;;;;;;;5055163;28;20394;-42
2021/12/05 19:17:35;;;;;;;32.42;11.73;;;;;;;;;;5055150;28;20171;-43
2021/12/05 19:20:19;;;;;;;102.85;25.63;;;;;;;;;;5055025;28;20028;-42
2021/12/05 19:22:45;;;;;;;61.38;19.15;;;;;;;;;;5054661;28;20029;-42
2021/12/05 19:25:16;;;;;;;101.63;25.58;;;;;;;;;;5053674;28;20025;-45
2021/12/05 19:27:42;;;;;;;;;;;;;;;;;;5055720;28;20025;-40
2021/12/05 19:30:12;;;;;;;80.22;23.17;;;;;;;;;;5055107;28;19913;-43
2021/12/05 19:32:38;;;;;;;70.00;21.63;;;;;;;;;;5054708;28;20111;-45
2021/12/05 19:35:05;;;;;;;70.85;20.83;;;;;;;;;;5054829;28;20108;-43
2021/12/05 19:37:31;;;;;;;34.55;12.95;;;;;;;;;;5054942;28;20025;-43
2021/12/05 19:39:56;;;;;;;41.85;16.02;;;;;;;;;;5054672;28;20033;-44
2021/12/05 19:42:24;;;;;;;72.75;21.15;;;;;;;;;;5054527;28;20075;-42
2021/12/05 19:44:52;;;;;;;56.92;19.20;;;;;;;;;;5054905;28;20037;-42
2021/12/05 19:47:18;;;;;;;72.72;17.02;;;;;;;;;;5054621;28;20055;-40
2021/12/05 19:49:43;;;;;;;97.10;24.35;;;;;;;;;;5054479;28;20025;-40
2021/12/05 19:52:09;;;;;;;109.75;26.63;;;;;;;;;;5054569;28;20029;-41
2021/12/05 19:54:36;;;;;;;78.88;19.65;;;;;;;;;;5054571;28;20029;-45
2021/12/05 19:57:03;;;;;;;123.05;25.55;;;;;;;;;;5053207;28;20025;-46
2021/12/05 19:59:28;;;;;;;102.95;26.70;;;;;;;;;;5054562;28;20033;-44
2021/12/05 20:01:54;;;;;;;41.53;16.08;;;;;;;;;;5054205;28;20462;-44
2021/12/05 20:04:21;;;;;;;75.93;22.90;;;;;;;;;;5054489;28;20048;-42
2021/12/05 20:06:49;;;;;;;65.70;17.73;;;;;;;;;;5054201;28;20470;-40
2021/12/05 20:09:15;;;;;;;47.38;14.45;;;;;;;;;;5054302;28;20098;-46
2021/12/05 20:11:42;;;;;;;52.75;15.55;;;;;;;;;;5054155;28;20029;-43
2021/12/05 20:14:09;;;;;;;81.82;24.40;;;;;;;;;;5054274;28;20028;-45
2021/12/05 20:16:35;;;;;;;52.08;15.70;;;;;;;;;;5054282;28;20033;-43
2021/12/05 20:19:03;;;;;;;56.60;18.63;;;;;;;;;;5053943;28;20496;-43
2021/12/05 20:21:33;;;;;;;27.40;10.80;;;;;;;;;;5053793;28;20478;-42
2021/12/05 20:23:59;;;;;;;62.70;18.15;;;;;;;;;;5036343;28;20025;-40